sensor_id;sensor_type;location;lat;lon;timestamp;P1;durP1;ratioP1;P2;durP2;ratioP2
40945;SDS011;55635;50.264;11.918;2022-12-18T00:01:43;55.65;;;19.40;;
40945;SDS011;55635;50.264;11.918;2022-12-18T00:04:24;83.97;;;24.33;;
40945;SDS011;55635;50.264;11.918;2022-12-18T00:07:07;87.53;;;23.00;;
40945;SDS011;55635;50.264;11.918;2022-12-18T00:09:49;90.78;;;26.58;;
40945;SDS011;55635;50.264;11.918;2022-12-18T00:12:30;82.10;;;24.75;;
40945;SDS011;55635;50.264;11.918;2022-12-18T00:15:11;70.80;;;18.05;;
40945;SDS011;55635;50.264;11.918;2022-12-18T00:17:52;73.82;;;22.42;;
40945;SDS011;55635;50.264;11.918;2022-12-18T00:20:37;85.03;;;20.58;;
40945;SDS011;55635;50.264;11.918;2022-12-18T00:23:19;76.53;;;21.25;;
40945;SDS011;55635;50.264;11.918;2022-12-18T00:26:01;87.35;;;23.27;;
40945;SDS011;55635;50.264;11.918;2022-12-18T00:28:45;73.97;;;22.33;;
40945;SDS011;55635;50.264;11.918;2022-12-18T00:31:26;77.47;;;22.92;;
40945;SDS011;55635;50.264;11.918;2022-12-18T00:34:11;62.72;;;21.30;;
40945;SDS011;55635;50.264;11.918;2022-12-18T00:36:53;91.70;;;23.23;;
40945;SDS011;55635;50.264;11.918;2022-12-18T00:39:35;94.50;;;22.67;;
40945;SDS011;55635;50.264;11.918;2022-12-18T00:42:17;85.13;;;22.05;;
40945;SDS011;55635;50.264;11.918;2022-12-18T00:45:16;79.30;;;21.55;;
40945;SDS011;55635;50.264;11.918;2022-12-18T00:47:57;78.18;;;20.10;;
40945;SDS011;55635;50.264;11.918;2022-12-18T00:50:38;89.28;;;24.50;;
40945;SDS011;55635;50.264;11.918;2022-12-18T00:53:20;101.45;;;23.48;;
40945;SDS011;55635;50.264;11.918;2022-12-18T00:56:02;98.65;;;25.92;;
40945;SDS011;55635;50.264;11.918;2022-12-18T00:58:43;104.93;;;23.77;;
40945;SDS011;55635;50.264;11.918;2022-12-18T01:01:24;66.32;;;20.38;;
40945;SDS011;55635;50.264;11.918;2022-12-18T01:04:05;93.53;;;23.10;;
40945;SDS011;55635;50.264;11.918;2022-12-18T01:06:47;87.28;;;24.90;;
40945;SDS011;55635;50.264;11.918;2022-12-18T01:09:28;90.80;;;24.25;;
40945;SDS011;55635;50.264;11.918;2022-12-18T01:12:10;78.38;;;20.98;;
40945;SDS011;55635;50.264;11.918;2022-12-18T01:14:51;77.97;;;23.17;;
40945;SDS011;55635;50.264;11.918;2022-12-18T01:17:32;88.80;;;24.30;;
40945;SDS011;55635;50.264;11.918;2022-12-18T01:20:14;86.57;;;23.80;;
40945;SDS011;55635;50.264;11.918;2022-12-18T01:22:56;83.75;;;26.13;;
40945;SDS011;55635;50.264;11.918;2022-12-18T01:25:37;65.95;;;21.40;;
40945;SDS011;55635;50.264;11.918;2022-12-18T01:28:21;82.30;;;21.83;;
40945;SDS011;55635;50.264;11.918;2022-12-18T01:31:09;59.42;;;18.23;;
40945;SDS011;55635;50.264;11.918;2022-12-18T01:34:05;62.90;;;18.50;;
40945;SDS011;55635;50.264;11.918;2022-12-18T01:36:48;53.85;;;18.13;;
40945;SDS011;55635;50.264;11.918;2022-12-18T01:39:32;57.15;;;19.05;;
40945;SDS011;55635;50.264;11.918;2022-12-18T01:42:16;50.90;;;18.23;;
40945;SDS011;55635;50.264;11.918;2022-12-18T01:48:03;109.30;;;24.48;;
40945;SDS011;55635;50.264;11.918;2022-12-18T01:50:48;48.75;;;16.15;;
40945;SDS011;55635;50.264;11.918;2022-12-18T01:53:30;57.72;;;18.58;;
40945;SDS011;55635;50.264;11.918;2022-12-18T01:56:12;37.53;;;15.50;;
40945;SDS011;55635;50.264;11.918;2022-12-18T01:58:58;45.67;;;16.08;;
40945;SDS011;55635;50.264;11.918;2022-12-18T02:01:44;48.72;;;15.05;;
40945;SDS011;55635;50.264;11.918;2022-12-18T02:04:26;62.58;;;17.33;;
40945;SDS011;55635;50.264;11.918;2022-12-18T02:10:31;48.47;;;15.45;;
40945;SDS011;55635;50.264;11.918;2022-12-18T02:13:46;54.65;;;17.77;;
40945;SDS011;55635;50.264;11.918;2022-12-18T02:16:43;50.75;;;16.52;;
40945;SDS011;55635;50.264;11.918;2022-12-18T02:26:48;40.38;;;14.48;;
40945;SDS011;55635;50.264;11.918;2022-12-18T02:29:48;49.67;;;16.98;;
40945;SDS011;55635;50.264;11.918;2022-12-18T02:32:34;40.90;;;16.33;;
40945;SDS011;55635;50.264;11.918;2022-12-18T02:35:30;52.65;;;15.85;;
40945;SDS011;55635;50.264;11.918;2022-12-18T02:38:14;44.38;;;15.90;;
40945;SDS011;55635;50.264;11.918;2022-12-18T02:40:59;44.92;;;16.88;;
40945;SDS011;55635;50.264;11.918;2022-12-18T02:43:48;41.92;;;15.80;;
40945;SDS011;55635;50.264;11.918;2022-12-18T02:46:38;49.50;;;18.20;;
40945;SDS011;55635;50.264;11.918;2022-12-18T03:04:52;48.92;;;17.17;;
40945;SDS011;55635;50.264;11.918;2022-12-18T03:08:15;49.85;;;16.20;;
40945;SDS011;55635;50.264;11.918;2022-12-18T03:11:07;36.20;;;11.50;;
40945;SDS011;55635;50.264;11.918;2022-12-18T03:13:53;54.57;;;18.53;;
40945;SDS011;55635;50.264;11.918;2022-12-18T03:16:37;60.77;;;18.27;;
40945;SDS011;55635;50.264;11.918;2022-12-18T03:19:21;53.42;;;16.73;;
40945;SDS011;55635;50.264;11.918;2022-12-18T03:22:12;51.08;;;18.27;;
40945;SDS011;55635;50.264;11.918;2022-12-18T03:25:02;44.58;;;16.48;;
40945;SDS011;55635;50.264;11.918;2022-12-18T03:27:49;52.05;;;16.75;;
40945;SDS011;55635;50.264;11.918;2022-12-18T03:30:37;56.40;;;17.63;;
40945;SDS011;55635;50.264;11.918;2022-12-18T03:33:24;44.25;;;15.18;;
40945;SDS011;55635;50.264;11.918;2022-12-18T03:36:14;49.53;;;18.15;;
40945;SDS011;55635;50.264;11.918;2022-12-18T03:38:56;46.47;;;15.27;;
40945;SDS011;55635;50.264;11.918;2022-12-18T03:41:51;37.90;;;13.50;;
40945;SDS011;55635;50.264;11.918;2022-12-18T03:48:07;47.27;;;15.63;;
40945;SDS011;55635;50.264;11.918;2022-12-18T03:51:31;43.10;;;16.40;;
40945;SDS011;55635;50.264;11.918;2022-12-18T03:54:25;39.22;;;14.45;;
40945;SDS011;55635;50.264;11.918;2022-12-18T03:57:18;37.08;;;12.80;;
40945;SDS011;55635;50.264;11.918;2022-12-18T04:00:08;55.45;;;15.73;;
40945;SDS011;55635;50.264;11.918;2022-12-18T04:03:06;62.20;;;15.82;;
40945;SDS011;55635;50.264;11.918;2022-12-18T04:08:37;46.38;;;16.15;;
40945;SDS011;55635;50.264;11.918;2022-12-18T04:11:21;58.70;;;17.33;;
40945;SDS011;55635;50.264;11.918;2022-12-18T04:14:03;47.63;;;15.32;;
40945;SDS011;55635;50.264;11.918;2022-12-18T04:16:45;47.58;;;14.65;;
40945;SDS011;55635;50.264;11.918;2022-12-18T04:19:29;43.83;;;14.38;;
40945;SDS011;55635;50.264;11.918;2022-12-18T04:22:11;66.35;;;14.48;;
40945;SDS011;55635;50.264;11.918;2022-12-18T04:24:57;31.92;;;12.13;;
40945;SDS011;55635;50.264;11.918;2022-12-18T04:27:45;46.00;;;11.23;;
40945;SDS011;55635;50.264;11.918;2022-12-18T04:30:26;53.17;;;14.77;;
40945;SDS011;55635;50.264;11.918;2022-12-18T04:33:09;59.17;;;17.95;;
40945;SDS011;55635;50.264;11.918;2022-12-18T04:35:52;67.25;;;20.33;;
40945;SDS011;55635;50.264;11.918;2022-12-18T04:38:33;64.60;;;20.83;;
40945;SDS011;55635;50.264;11.918;2022-12-18T04:41:20;68.47;;;20.50;;
40945;SDS011;55635;50.264;11.918;2022-12-18T04:44:02;77.00;;;19.83;;
40945;SDS011;55635;50.264;11.918;2022-12-18T04:46:44;72.88;;;22.17;;
40945;SDS011;55635;50.264;11.918;2022-12-18T04:49:25;70.30;;;20.23;;
40945;SDS011;55635;50.264;11.918;2022-12-18T04:52:07;77.07;;;21.50;;
40945;SDS011;55635;50.264;11.918;2022-12-18T04:54:49;77.13;;;19.50;;
40945;SDS011;55635;50.264;11.918;2022-12-18T04:57:30;74.82;;;21.13;;
40945;SDS011;55635;50.264;11.918;2022-12-18T05:00:11;63.20;;;20.30;;
40945;SDS011;55635;50.264;11.918;2022-12-18T05:02:53;64.28;;;19.42;;
40945;SDS011;55635;50.264;11.918;2022-12-18T05:05:34;67.78;;;19.20;;
40945;SDS011;55635;50.264;11.918;2022-12-18T05:08:15;78.20;;;21.08;;
40945;SDS011;55635;50.264;11.918;2022-12-18T05:11:04;91.03;;;21.77;;
40945;SDS011;55635;50.264;11.918;2022-12-18T05:13:48;79.43;;;21.77;;
40945;SDS011;55635;50.264;11.918;2022-12-18T05:16:29;80.10;;;22.25;;
40945;SDS011;55635;50.264;11.918;2022-12-18T05:19:10;79.30;;;21.23;;
40945;SDS011;55635;50.264;11.918;2022-12-18T05:21:51;77.60;;;21.83;;
40945;SDS011;55635;50.264;11.918;2022-12-18T05:24:32;79.85;;;22.35;;
40945;SDS011;55635;50.264;11.918;2022-12-18T05:27:14;66.13;;;21.10;;
40945;SDS011;55635;50.264;11.918;2022-12-18T05:29:55;72.93;;;19.77;;
40945;SDS011;55635;50.264;11.918;2022-12-18T05:32:37;70.43;;;21.15;;
40945;SDS011;55635;50.264;11.918;2022-12-18T05:35:18;82.13;;;22.10;;
40945;SDS011;55635;50.264;11.918;2022-12-18T05:37:59;85.10;;;23.02;;
40945;SDS011;55635;50.264;11.918;2022-12-18T05:40:41;76.90;;;21.65;;
40945;SDS011;55635;50.264;11.918;2022-12-18T05:43:24;70.15;;;23.02;;
40945;SDS011;55635;50.264;11.918;2022-12-18T05:46:12;83.75;;;22.17;;
40945;SDS011;55635;50.264;11.918;2022-12-18T05:48:58;92.13;;;22.63;;
40945;SDS011;55635;50.264;11.918;2022-12-18T05:51:41;90.72;;;22.33;;
40945;SDS011;55635;50.264;11.918;2022-12-18T05:54:22;107.10;;;26.88;;
40945;SDS011;55635;50.264;11.918;2022-12-18T05:57:03;56.40;;;18.42;;
40945;SDS011;55635;50.264;11.918;2022-12-18T05:59:44;58.83;;;17.02;;
40945;SDS011;55635;50.264;11.918;2022-12-18T06:02:26;51.33;;;13.27;;
40945;SDS011;55635;50.264;11.918;2022-12-18T06:05:07;47.80;;;13.68;;
40945;SDS011;55635;50.264;11.918;2022-12-18T06:07:49;47.33;;;14.98;;
40945;SDS011;55635;50.264;11.918;2022-12-18T06:10:30;64.22;;;20.63;;
40945;SDS011;55635;50.264;11.918;2022-12-18T06:13:12;56.67;;;19.13;;
40945;SDS011;55635;50.264;11.918;2022-12-18T06:15:53;71.90;;;23.90;;
40945;SDS011;55635;50.264;11.918;2022-12-18T06:18:34;66.30;;;20.85;;
40945;SDS011;55635;50.264;11.918;2022-12-18T06:21:15;67.47;;;21.25;;
40945;SDS011;55635;50.264;11.918;2022-12-18T06:23:57;80.38;;;21.38;;
40945;SDS011;55635;50.264;11.918;2022-12-18T06:26:39;76.00;;;21.88;;
40945;SDS011;55635;50.264;11.918;2022-12-18T06:29:20;57.70;;;19.10;;
40945;SDS011;55635;50.264;11.918;2022-12-18T06:32:01;57.03;;;18.75;;
40945;SDS011;55635;50.264;11.918;2022-12-18T06:34:43;60.47;;;18.52;;
40945;SDS011;55635;50.264;11.918;2022-12-18T06:37:24;65.85;;;20.33;;
40945;SDS011;55635;50.264;11.918;2022-12-18T06:40:06;58.78;;;21.13;;
40945;SDS011;55635;50.264;11.918;2022-12-18T06:42:48;54.47;;;18.50;;
40945;SDS011;55635;50.264;11.918;2022-12-18T06:45:29;66.60;;;19.58;;
40945;SDS011;55635;50.264;11.918;2022-12-18T06:48:10;64.20;;;20.50;;
40945;SDS011;55635;50.264;11.918;2022-12-18T06:50:53;28.00;;;10.32;;
40945;SDS011;55635;50.264;11.918;2022-12-18T06:53:34;26.55;;;8.82;;
40945;SDS011;55635;50.264;11.918;2022-12-18T06:56:15;24.55;;;8.10;;
40945;SDS011;55635;50.264;11.918;2022-12-18T06:58:57;15.57;;;7.50;;
40945;SDS011;55635;50.264;11.918;2022-12-18T07:01:38;27.02;;;7.53;;
40945;SDS011;55635;50.264;11.918;2022-12-18T07:04:19;17.33;;;8.07;;
40945;SDS011;55635;50.264;11.918;2022-12-18T07:07:00;22.45;;;7.55;;
40945;SDS011;55635;50.264;11.918;2022-12-18T07:09:41;19.52;;;7.43;;
40945;SDS011;55635;50.264;11.918;2022-12-18T07:12:23;19.85;;;7.75;;
40945;SDS011;55635;50.264;11.918;2022-12-18T07:15:04;22.13;;;7.85;;
40945;SDS011;55635;50.264;11.918;2022-12-18T07:17:46;19.05;;;7.28;;
40945;SDS011;55635;50.264;11.918;2022-12-18T07:20:27;22.25;;;8.02;;
40945;SDS011;55635;50.264;11.918;2022-12-18T07:23:08;20.88;;;8.15;;
40945;SDS011;55635;50.264;11.918;2022-12-18T07:25:49;19.25;;;9.38;;
40945;SDS011;55635;50.264;11.918;2022-12-18T07:28:31;13.85;;;6.65;;
40945;SDS011;55635;50.264;11.918;2022-12-18T07:31:15;22.70;;;8.43;;
40945;SDS011;55635;50.264;11.918;2022-12-18T07:34:00;19.75;;;8.70;;
40945;SDS011;55635;50.264;11.918;2022-12-18T07:36:41;25.17;;;8.85;;
40945;SDS011;55635;50.264;11.918;2022-12-18T07:39:23;25.58;;;9.35;;
40945;SDS011;55635;50.264;11.918;2022-12-18T07:42:04;25.85;;;8.50;;
40945;SDS011;55635;50.264;11.918;2022-12-18T07:45:07;18.20;;;7.68;;
40945;SDS011;55635;50.264;11.918;2022-12-18T07:47:49;22.65;;;9.40;;
40945;SDS011;55635;50.264;11.918;2022-12-18T07:50:30;23.92;;;8.82;;
40945;SDS011;55635;50.264;11.918;2022-12-18T07:53:11;21.42;;;8.68;;
40945;SDS011;55635;50.264;11.918;2022-12-18T07:55:59;22.90;;;9.38;;
40945;SDS011;55635;50.264;11.918;2022-12-18T07:58:43;20.35;;;8.10;;
40945;SDS011;55635;50.264;11.918;2022-12-18T08:01:24;25.50;;;8.45;;
40945;SDS011;55635;50.264;11.918;2022-12-18T08:04:05;24.70;;;9.48;;
40945;SDS011;55635;50.264;11.918;2022-12-18T08:06:46;21.13;;;8.82;;
40945;SDS011;55635;50.264;11.918;2022-12-18T08:09:27;21.30;;;8.57;;
40945;SDS011;55635;50.264;11.918;2022-12-18T08:12:08;23.13;;;8.85;;
40945;SDS011;55635;50.264;11.918;2022-12-18T08:14:49;19.40;;;8.27;;
40945;SDS011;55635;50.264;11.918;2022-12-18T08:17:30;20.27;;;8.52;;
40945;SDS011;55635;50.264;11.918;2022-12-18T08:20:11;17.73;;;9.07;;
40945;SDS011;55635;50.264;11.918;2022-12-18T08:22:53;25.67;;;9.25;;
40945;SDS011;55635;50.264;11.918;2022-12-18T08:25:34;19.08;;;8.90;;
40945;SDS011;55635;50.264;11.918;2022-12-18T08:28:15;25.20;;;10.02;;
40945;SDS011;55635;50.264;11.918;2022-12-18T08:30:56;21.30;;;9.10;;
40945;SDS011;55635;50.264;11.918;2022-12-18T08:33:38;22.92;;;9.77;;
40945;SDS011;55635;50.264;11.918;2022-12-18T08:36:19;21.85;;;10.05;;
40945;SDS011;55635;50.264;11.918;2022-12-18T08:39:01;22.10;;;10.48;;
40945;SDS011;55635;50.264;11.918;2022-12-18T08:41:42;22.13;;;10.50;;
40945;SDS011;55635;50.264;11.918;2022-12-18T08:44:43;21.30;;;10.48;;
40945;SDS011;55635;50.264;11.918;2022-12-18T08:47:24;25.50;;;11.23;;
40945;SDS011;55635;50.264;11.918;2022-12-18T08:50:06;25.10;;;12.40;;
40945;SDS011;55635;50.264;11.918;2022-12-18T08:52:47;21.65;;;11.10;;
40945;SDS011;55635;50.264;11.918;2022-12-18T08:55:28;22.63;;;10.10;;
40945;SDS011;55635;50.264;11.918;2022-12-18T08:58:09;21.77;;;10.77;;
40945;SDS011;55635;50.264;11.918;2022-12-18T09:00:50;19.30;;;10.27;;
40945;SDS011;55635;50.264;11.918;2022-12-18T09:03:31;21.83;;;11.25;;
40945;SDS011;55635;50.264;11.918;2022-12-18T09:06:13;22.35;;;10.38;;
40945;SDS011;55635;50.264;11.918;2022-12-18T09:08:56;26.13;;;10.98;;
40945;SDS011;55635;50.264;11.918;2022-12-18T09:11:37;22.60;;;11.05;;
40945;SDS011;55635;50.264;11.918;2022-12-18T09:14:18;27.75;;;11.90;;
40945;SDS011;55635;50.264;11.918;2022-12-18T09:16:59;27.20;;;12.02;;
40945;SDS011;55635;50.264;11.918;2022-12-18T09:19:43;29.60;;;12.15;;
40945;SDS011;55635;50.264;11.918;2022-12-18T09:22:24;27.80;;;12.40;;
40945;SDS011;55635;50.264;11.918;2022-12-18T09:25:05;24.30;;;10.90;;
40945;SDS011;55635;50.264;11.918;2022-12-18T09:27:49;24.73;;;11.98;;
40945;SDS011;55635;50.264;11.918;2022-12-18T09:30:31;26.48;;;12.88;;
40945;SDS011;55635;50.264;11.918;2022-12-18T09:33:16;27.58;;;13.73;;
40945;SDS011;55635;50.264;11.918;2022-12-18T09:36:00;23.55;;;11.25;;
40945;SDS011;55635;50.264;11.918;2022-12-18T09:38:46;30.03;;;12.80;;
40945;SDS011;55635;50.264;11.918;2022-12-18T09:44:36;27.02;;;12.90;;
40945;SDS011;55635;50.264;11.918;2022-12-18T09:47:34;27.92;;;12.70;;
40945;SDS011;55635;50.264;11.918;2022-12-18T09:50:27;25.23;;;11.90;;
40945;SDS011;55635;50.264;11.918;2022-12-18T09:53:17;31.13;;;13.48;;
40945;SDS011;55635;50.264;11.918;2022-12-18T09:56:04;32.15;;;14.10;;
40945;SDS011;55635;50.264;11.918;2022-12-18T09:59:09;24.92;;;13.45;;
40945;SDS011;55635;50.264;11.918;2022-12-18T10:02:13;26.50;;;12.98;;
40945;SDS011;55635;50.264;11.918;2022-12-18T10:11:16;26.88;;;12.75;;
40945;SDS011;55635;50.264;11.918;2022-12-18T10:20:52;28.13;;;12.90;;
40945;SDS011;55635;50.264;11.918;2022-12-18T10:23:54;28.40;;;13.38;;
40945;SDS011;55635;50.264;11.918;2022-12-18T10:26:49;24.52;;;11.95;;
40945;SDS011;55635;50.264;11.918;2022-12-18T10:29:32;24.95;;;12.43;;
40945;SDS011;55635;50.264;11.918;2022-12-18T10:32:20;26.52;;;12.88;;
40945;SDS011;55635;50.264;11.918;2022-12-18T10:35:14;27.38;;;12.90;;
40945;SDS011;55635;50.264;11.918;2022-12-18T10:40:57;26.45;;;12.52;;
40945;SDS011;55635;50.264;11.918;2022-12-18T10:43:40;29.38;;;13.15;;
40945;SDS011;55635;50.264;11.918;2022-12-18T10:46:21;27.70;;;14.07;;
40945;SDS011;55635;50.264;11.918;2022-12-18T10:49:02;27.15;;;13.43;;
40945;SDS011;55635;50.264;11.918;2022-12-18T10:51:44;28.42;;;12.68;;
40945;SDS011;55635;50.264;11.918;2022-12-18T10:54:25;29.83;;;14.43;;
40945;SDS011;55635;50.264;11.918;2022-12-18T10:57:20;22.70;;;12.48;;
40945;SDS011;55635;50.264;11.918;2022-12-18T11:03:02;24.92;;;12.90;;
40945;SDS011;55635;50.264;11.918;2022-12-18T11:09:00;27.92;;;12.38;;
40945;SDS011;55635;50.264;11.918;2022-12-18T11:11:42;23.33;;;11.80;;
40945;SDS011;55635;50.264;11.918;2022-12-18T11:14:41;27.08;;;12.93;;
40945;SDS011;55635;50.264;11.918;2022-12-18T11:17:41;22.33;;;11.52;;
40945;SDS011;55635;50.264;11.918;2022-12-18T11:20:26;19.27;;;10.52;;
40945;SDS011;55635;50.264;11.918;2022-12-18T11:23:14;25.75;;;11.95;;
40945;SDS011;55635;50.264;11.918;2022-12-18T11:25:56;21.52;;;10.95;;
40945;SDS011;55635;50.264;11.918;2022-12-18T11:28:44;26.20;;;12.07;;
40945;SDS011;55635;50.264;11.918;2022-12-18T11:32:21;22.90;;;11.57;;
40945;SDS011;55635;50.264;11.918;2022-12-18T11:38:39;24.27;;;11.95;;
40945;SDS011;55635;50.264;11.918;2022-12-18T11:41:25;22.88;;;11.10;;
40945;SDS011;55635;50.264;11.918;2022-12-18T11:44:55;23.77;;;11.27;;
40945;SDS011;55635;50.264;11.918;2022-12-18T11:53:17;18.65;;;10.73;;
40945;SDS011;55635;50.264;11.918;2022-12-18T12:05:40;26.27;;;10.70;;
40945;SDS011;55635;50.264;11.918;2022-12-18T12:09:02;25.92;;;10.60;;
40945;SDS011;55635;50.264;11.918;2022-12-18T12:28:08;18.65;;;9.82;;
40945;SDS011;55635;50.264;11.918;2022-12-18T12:31:23;19.42;;;9.98;;
40945;SDS011;55635;50.264;11.918;2022-12-18T12:34:10;21.25;;;9.95;;
40945;SDS011;55635;50.264;11.918;2022-12-18T12:39:56;17.85;;;9.43;;
40945;SDS011;55635;50.264;11.918;2022-12-18T12:42:39;24.13;;;10.48;;
40945;SDS011;55635;50.264;11.918;2022-12-18T12:45:54;17.73;;;9.85;;
40945;SDS011;55635;50.264;11.918;2022-12-18T12:48:49;18.85;;;9.38;;
40945;SDS011;55635;50.264;11.918;2022-12-18T12:51:45;21.23;;;9.60;;
40945;SDS011;55635;50.264;11.918;2022-12-18T12:54:53;17.15;;;9.90;;
40945;SDS011;55635;50.264;11.918;2022-12-18T12:58:19;21.85;;;9.75;;
40945;SDS011;55635;50.264;11.918;2022-12-18T13:04:08;17.27;;;9.27;;
40945;SDS011;55635;50.264;11.918;2022-12-18T13:07:16;21.52;;;10.45;;
40945;SDS011;55635;50.264;11.918;2022-12-18T13:13:03;16.73;;;8.57;;
40945;SDS011;55635;50.264;11.918;2022-12-18T13:16:05;14.63;;;7.80;;
40945;SDS011;55635;50.264;11.918;2022-12-18T13:18:48;16.85;;;8.70;;
40945;SDS011;55635;50.264;11.918;2022-12-18T13:21:36;16.63;;;8.75;;
40945;SDS011;55635;50.264;11.918;2022-12-18T13:24:25;19.70;;;9.48;;
40945;SDS011;55635;50.264;11.918;2022-12-18T13:42:34;17.60;;;8.25;;
40945;SDS011;55635;50.264;11.918;2022-12-18T13:48:24;17.85;;;8.80;;
40945;SDS011;55635;50.264;11.918;2022-12-18T13:51:08;19.33;;;9.02;;
40945;SDS011;55635;50.264;11.918;2022-12-18T13:53:56;17.77;;;8.98;;
40945;SDS011;55635;50.264;11.918;2022-12-18T13:57:02;18.00;;;9.10;;
40945;SDS011;55635;50.264;11.918;2022-12-18T13:59:44;20.42;;;8.77;;
40945;SDS011;55635;50.264;11.918;2022-12-18T14:02:26;19.45;;;9.00;;
40945;SDS011;55635;50.264;11.918;2022-12-18T14:05:19;15.32;;;7.90;;
40945;SDS011;55635;50.264;11.918;2022-12-18T14:08:05;21.38;;;9.90;;
40945;SDS011;55635;50.264;11.918;2022-12-18T14:10:51;23.10;;;10.20;;
40945;SDS011;55635;50.264;11.918;2022-12-18T14:13:35;18.77;;;9.77;;
40945;SDS011;55635;50.264;11.918;2022-12-18T14:16:21;24.20;;;9.88;;
40945;SDS011;55635;50.264;11.918;2022-12-18T14:19:02;34.17;;;11.73;;
40945;SDS011;55635;50.264;11.918;2022-12-18T14:21:47;23.52;;;10.25;;
40945;SDS011;55635;50.264;11.918;2022-12-18T14:24:29;19.50;;;9.57;;
40945;SDS011;55635;50.264;11.918;2022-12-18T14:27:21;22.13;;;10.18;;
40945;SDS011;55635;50.264;11.918;2022-12-18T14:33:08;23.83;;;10.30;;
40945;SDS011;55635;50.264;11.918;2022-12-18T14:36:24;22.90;;;10.98;;
40945;SDS011;55635;50.264;11.918;2022-12-18T14:39:14;23.50;;;9.90;;
40945;SDS011;55635;50.264;11.918;2022-12-18T14:41:57;26.03;;;11.43;;
40945;SDS011;55635;50.264;11.918;2022-12-18T14:44:39;19.83;;;9.80;;
40945;SDS011;55635;50.264;11.918;2022-12-18T14:47:19;24.40;;;11.02;;
40945;SDS011;55635;50.264;11.918;2022-12-18T14:50:01;21.15;;;10.77;;
40945;SDS011;55635;50.264;11.918;2022-12-18T14:52:42;22.27;;;9.68;;
40945;SDS011;55635;50.264;11.918;2022-12-18T14:55:24;22.02;;;9.85;;
40945;SDS011;55635;50.264;11.918;2022-12-18T14:58:10;21.60;;;9.65;;
40945;SDS011;55635;50.264;11.918;2022-12-18T15:00:57;17.98;;;9.13;;
40945;SDS011;55635;50.264;11.918;2022-12-18T15:03:42;18.75;;;9.68;;
40945;SDS011;55635;50.264;11.918;2022-12-18T15:06:26;24.60;;;10.90;;
40945;SDS011;55635;50.264;11.918;2022-12-18T15:09:22;20.38;;;9.88;;
40945;SDS011;55635;50.264;11.918;2022-12-18T15:12:26;19.88;;;9.90;;
40945;SDS011;55635;50.264;11.918;2022-12-18T15:18:26;24.52;;;10.32;;
40945;SDS011;55635;50.264;11.918;2022-12-18T15:21:15;18.13;;;10.30;;
40945;SDS011;55635;50.264;11.918;2022-12-18T15:23:59;21.15;;;8.75;;
40945;SDS011;55635;50.264;11.918;2022-12-18T15:26:40;28.33;;;8.90;;
40945;SDS011;55635;50.264;11.918;2022-12-18T15:29:22;17.27;;;9.38;;
40945;SDS011;55635;50.264;11.918;2022-12-18T15:32:15;19.70;;;9.95;;
40945;SDS011;55635;50.264;11.918;2022-12-18T15:38:04;18.80;;;8.83;;
40945;SDS011;55635;50.264;11.918;2022-12-18T15:40:47;22.77;;;10.68;;
40945;SDS011;55635;50.264;11.918;2022-12-18T15:43:28;20.90;;;9.23;;
40945;SDS011;55635;50.264;11.918;2022-12-18T15:46:17;19.17;;;9.25;;
40945;SDS011;55635;50.264;11.918;2022-12-18T15:49:01;19.10;;;9.68;;
40945;SDS011;55635;50.264;11.918;2022-12-18T15:51:42;19.50;;;9.15;;
40945;SDS011;55635;50.264;11.918;2022-12-18T15:54:24;22.30;;;9.18;;
40945;SDS011;55635;50.264;11.918;2022-12-18T15:57:24;23.60;;;10.88;;
40945;SDS011;55635;50.264;11.918;2022-12-18T16:00:05;19.42;;;9.07;;
40945;SDS011;55635;50.264;11.918;2022-12-18T16:02:51;24.95;;;10.02;;
40945;SDS011;55635;50.264;11.918;2022-12-18T16:05:33;22.42;;;10.20;;
40945;SDS011;55635;50.264;11.918;2022-12-18T16:08:14;17.67;;;9.07;;
40945;SDS011;55635;50.264;11.918;2022-12-18T16:10:56;20.45;;;9.82;;
40945;SDS011;55635;50.264;11.918;2022-12-18T16:13:38;17.83;;;8.70;;
40945;SDS011;55635;50.264;11.918;2022-12-18T16:16:19;18.60;;;9.63;;
40945;SDS011;55635;50.264;11.918;2022-12-18T16:19:00;19.73;;;10.40;;
40945;SDS011;55635;50.264;11.918;2022-12-18T16:21:42;22.05;;;10.88;;
40945;SDS011;55635;50.264;11.918;2022-12-18T16:24:24;24.88;;;10.73;;
40945;SDS011;55635;50.264;11.918;2022-12-18T16:27:08;20.30;;;9.85;;
40945;SDS011;55635;50.264;11.918;2022-12-18T16:29:49;19.77;;;9.05;;
40945;SDS011;55635;50.264;11.918;2022-12-18T16:32:30;21.27;;;9.05;;
40945;SDS011;55635;50.264;11.918;2022-12-18T16:35:13;21.50;;;9.93;;
40945;SDS011;55635;50.264;11.918;2022-12-18T16:37:56;18.80;;;9.40;;
40945;SDS011;55635;50.264;11.918;2022-12-18T16:40:37;18.40;;;9.48;;
40945;SDS011;55635;50.264;11.918;2022-12-18T16:43:38;19.75;;;9.75;;
40945;SDS011;55635;50.264;11.918;2022-12-18T16:46:19;21.95;;;9.82;;
40945;SDS011;55635;50.264;11.918;2022-12-18T16:49:00;21.40;;;9.75;;
40945;SDS011;55635;50.264;11.918;2022-12-18T16:51:42;21.95;;;10.02;;
40945;SDS011;55635;50.264;11.918;2022-12-18T16:54:23;18.08;;;9.23;;
40945;SDS011;55635;50.264;11.918;2022-12-18T16:57:05;18.45;;;9.80;;
40945;SDS011;55635;50.264;11.918;2022-12-18T16:59:46;18.80;;;9.65;;
40945;SDS011;55635;50.264;11.918;2022-12-18T17:02:28;20.98;;;10.63;;
40945;SDS011;55635;50.264;11.918;2022-12-18T17:05:09;22.35;;;9.23;;
40945;SDS011;55635;50.264;11.918;2022-12-18T17:07:52;19.40;;;8.45;;
40945;SDS011;55635;50.264;11.918;2022-12-18T17:10:35;25.85;;;11.45;;
40945;SDS011;55635;50.264;11.918;2022-12-18T17:13:16;22.77;;;10.30;;
40945;SDS011;55635;50.264;11.918;2022-12-18T17:16:01;24.30;;;9.23;;
40945;SDS011;55635;50.264;11.918;2022-12-18T17:18:43;25.58;;;10.05;;
40945;SDS011;55635;50.264;11.918;2022-12-18T17:21:25;25.58;;;12.57;;
40945;SDS011;55635;50.264;11.918;2022-12-18T17:24:06;20.35;;;9.30;;
40945;SDS011;55635;50.264;11.918;2022-12-18T17:26:47;19.30;;;9.95;;
40945;SDS011;55635;50.264;11.918;2022-12-18T17:29:29;24.15;;;10.90;;
40945;SDS011;55635;50.264;11.918;2022-12-18T17:32:10;23.35;;;10.57;;
40945;SDS011;55635;50.264;11.918;2022-12-18T17:34:51;20.95;;;10.68;;
40945;SDS011;55635;50.264;11.918;2022-12-18T17:37:33;23.38;;;10.10;;
40945;SDS011;55635;50.264;11.918;2022-12-18T17:40:14;21.70;;;11.43;;
40945;SDS011;55635;50.264;11.918;2022-12-18T17:42:55;22.98;;;10.82;;
40945;SDS011;55635;50.264;11.918;2022-12-18T17:45:37;19.55;;;10.50;;
40945;SDS011;55635;50.264;11.918;2022-12-18T17:48:18;23.80;;;9.48;;
40945;SDS011;55635;50.264;11.918;2022-12-18T17:51:03;22.67;;;10.23;;
40945;SDS011;55635;50.264;11.918;2022-12-18T17:53:46;19.75;;;9.55;;
40945;SDS011;55635;50.264;11.918;2022-12-18T17:56:28;20.80;;;9.65;;
40945;SDS011;55635;50.264;11.918;2022-12-18T17:59:09;21.40;;;9.82;;
40945;SDS011;55635;50.264;11.918;2022-12-18T18:01:52;21.95;;;10.32;;
40945;SDS011;55635;50.264;11.918;2022-12-18T18:04:33;22.50;;;11.15;;
40945;SDS011;55635;50.264;11.918;2022-12-18T18:07:15;22.33;;;12.10;;
40945;SDS011;55635;50.264;11.918;2022-12-18T18:09:56;23.10;;;9.82;;
40945;SDS011;55635;50.264;11.918;2022-12-18T18:12:37;24.13;;;9.68;;